createdAt,value
2023-04-18T00:00:44.775Z,101247.58
2023-04-18T00:01:46.622Z,101250.16
2023-04-18T00:02:48.589Z,101250.16
2023-04-18T00:03:50.740Z,101248.38
2023-04-18T00:04:52.835Z,101237.93
2023-04-18T00:05:54.696Z,101243.98
2023-04-18T00:06:56.500Z,101240.51
2023-04-18T00:07:58.285Z,101246.58
2023-04-18T00:09:00.168Z,101246.58
2023-04-18T00:10:01.945Z,101243.95
2023-04-18T00:11:03.768Z,101237.93
2023-04-18T00:12:05.477Z,101239.64
2023-04-18T00:13:07.263Z,101244.90
2023-04-18T00:14:09.054Z,101242.30
2023-04-18T00:15:10.896Z,101242.30
2023-04-18T00:16:13.831Z,101251.00
2023-04-18T00:17:15.692Z,101245.74
2023-04-18T00:18:17.484Z,101239.64
2023-04-18T00:19:19.285Z,101249.21
2023-04-18T00:20:21.160Z,101239.64
2023-04-18T00:21:22.991Z,101238.74
2023-04-18T00:22:43.089Z,101254.34
2023-04-18T00:23:44.911Z,101251.73
2023-04-18T00:24:46.711Z,101241.27
2023-04-18T00:25:48.499Z,101242.08
2023-04-18T00:26:50.307Z,101249.86
2023-04-18T00:27:52.014Z,101239.42
2023-04-18T00:28:53.812Z,101241.95
2023-04-18T00:29:55.593Z,101236.69
2023-04-18T00:30:57.539Z,101236.66
2023-04-18T00:31:59.334Z,101234.05
2023-04-18T00:33:01.171Z,101233.22
2023-04-18T00:34:02.933Z,101238.42
2023-04-18T00:35:04.716Z,101234.95
2023-04-18T00:36:06.644Z,101230.59
2023-04-18T00:37:08.467Z,101241.03
2023-04-18T00:38:10.265Z,101234.08
2023-04-18T00:39:12.057Z,101234.89
2023-04-18T00:40:13.854Z,101234.89
2023-04-18T00:41:15.662Z,101229.63
2023-04-18T00:42:17.511Z,101218.33
2023-04-18T00:43:19.298Z,101218.33
2023-04-18T00:44:21.156Z,101221.77
2023-04-18T00:45:22.945Z,101219.17
2023-04-18T00:46:24.768Z,101226.14
2023-04-18T00:47:26.788Z,101230.48
2023-04-18T00:48:28.573Z,101236.58
2023-04-18T00:49:30.369Z,101230.48
2023-04-18T00:50:32.172Z,101233.92
2023-04-18T00:51:33.994Z,101233.05
2023-04-18T00:52:35.812Z,101233.08
2023-04-18T00:53:37.609Z,101232.21
2023-04-18T00:54:39.509Z,101236.58
2023-04-18T00:55:41.310Z,101230.45
2023-04-18T00:56:43.124Z,101232.16
2023-04-18T00:57:44.948Z,101229.55
2023-04-18T00:58:46.848Z,101233.89
2023-04-18T00:59:48.655Z,101221.69
2023-04-18T01:00:50.455Z,101225.22
2023-04-18T01:01:52.366Z,101229.58
2023-04-18T01:02:54.412Z,101233.05
2023-04-18T01:03:56.482Z,101220.88
2023-04-18T01:04:58.306Z,101227.79
2023-04-18T01:06:00.126Z,101228.62
2023-04-18T01:07:01.907Z,101227.73
2023-04-18T01:08:03.757Z,101232.91
2023-04-18T01:09:05.459Z,101232.02
2023-04-18T01:10:07.755Z,101225.95
2023-04-18T01:11:09.693Z,101239.82
2023-04-18T01:12:11.490Z,101231.15
2023-04-18T01:13:13.315Z,101235.52
2023-04-18T01:14:15.302Z,101237.22
2023-04-18T01:15:17.214Z,101236.30
2023-04-18T01:16:19.234Z,101238.03
2023-04-18T01:17:21.105Z,101238.90
2023-04-18T01:18:22.926Z,101232.86
2023-04-18T01:19:24.726Z,101236.33
2023-04-18T01:20:26.510Z,101244.97
2023-04-18T01:21:28.323Z,101230.23
2023-04-18T01:22:30.152Z,101236.27
2023-04-18T01:23:31.969Z,101238.00
2023-04-18T01:24:33.770Z,101230.08
2023-04-18T01:25:35.567Z,101241.38
2023-04-18T01:26:37.359Z,101236.20
2023-04-18T01:27:39.289Z,101237.88
2023-04-18T01:28:41.120Z,101233.58
2023-04-18T01:29:42.912Z,101236.98
2023-04-18T01:30:44.712Z,101236.95
2023-04-18T01:31:46.557Z,101255.17
2023-04-18T01:32:48.363Z,101248.20
2023-04-18T01:33:50.144Z,101239.53
2023-04-18T01:34:51.963Z,101241.27
2023-04-18T01:35:53.752Z,101242.10
2023-04-18T01:36:55.551Z,101233.41
2023-04-18T01:37:57.358Z,101235.11
2023-04-18T01:38:59.186Z,101238.55
2023-04-18T01:40:00.985Z,101224.67
2023-04-18T01:41:02.785Z,101226.37
2023-04-18T01:42:04.588Z,101236.75
2023-04-18T01:43:06.517Z,101231.48
2023-04-18T01:44:08.336Z,101234.05
2023-04-18T01:45:10.121Z,101226.22
2023-04-18T01:46:13.510Z,101227.98
2023-04-18T01:47:15.336Z,101230.59
2023-04-18T01:48:17.136Z,101233.19
2023-04-18T01:49:18.984Z,101242.70
2023-04-18T01:50:20.788Z,101233.97
2023-04-18T01:51:22.468Z,101233.97
2023-04-18T01:52:24.335Z,101230.53
2023-04-18T01:53:26.059Z,101232.23
2023-04-18T01:54:27.920Z,101230.47
2023-04-18T01:55:29.737Z,101237.41
2023-04-18T01:56:31.539Z,101227.80
2023-04-18T01:57:33.328Z,101236.53
2023-04-18T01:58:35.142Z,101249.51
2023-04-18T01:59:36.977Z,101240.72
2023-04-18T02:00:38.804Z,101242.45
2023-04-18T02:01:40.587Z,101234.62
2023-04-18T02:02:42.464Z,101236.38
2023-04-18T02:03:44.651Z,101242.48
2023-04-18T02:04:46.614Z,101247.71
2023-04-18T02:05:48.419Z,101240.72
2023-04-18T02:06:50.236Z,101245.92
2023-04-18T02:07:52.045Z,101246.78
2023-04-18T02:08:53.823Z,101244.16
2023-04-18T02:09:55.667Z,101244.19
2023-04-18T02:10:57.472Z,101244.19
2023-04-18T02:11:59.280Z,101238.05
2023-04-18T02:13:01.056Z,101240.66
2023-04-18T02:14:02.874Z,101239.78
2023-04-18T02:15:04.685Z,101242.39
2023-04-18T02:16:06.618Z,101244.09
2023-04-18T02:17:08.402Z,101231.05
2023-04-18T02:18:10.188Z,101238.83
2023-04-18T02:19:11.995Z,101242.30
2023-04-18T02:20:13.910Z,101249.23
2023-04-18T02:21:15.704Z,101240.53
2023-04-18T02:22:17.506Z,101240.53
2023-04-18T02:23:19.302Z,101251.77
2023-04-18T02:24:21.115Z,101252.53
2023-04-18T02:25:22.948Z,101259.43
2023-04-18T02:26:24.755Z,101266.36
2023-04-18T02:27:26.570Z,101262.90
2023-04-18T02:28:28.344Z,101247.30
2023-04-18T02:29:30.146Z,101255.13
2023-04-18T02:30:31.993Z,101256.00
2023-04-18T02:31:33.867Z,101252.56
2023-04-18T02:32:35.752Z,101259.50
2023-04-18T02:33:37.598Z,101265.53
2023-04-18T02:34:39.323Z,101260.33
2023-04-18T02:35:41.138Z,101261.13
2023-04-18T02:36:42.939Z,101260.27
2023-04-18T02:37:44.738Z,101260.27
2023-04-18T02:38:46.526Z,101264.56
2023-04-18T02:39:48.328Z,101261.06
2023-04-18T02:40:50.282Z,101258.44
2023-04-18T02:41:52.067Z,101259.30
2023-04-18T02:42:53.884Z,101252.34
2023-04-18T02:43:55.700Z,101251.41
2023-04-18T02:44:57.500Z,101253.14
2023-04-18T02:45:59.409Z,101257.47
2023-04-18T02:47:01.297Z,101253.11
2023-04-18T02:48:03.109Z,101252.20
2023-04-18T02:49:04.914Z,101259.06
2023-04-18T02:50:07.016Z,101255.64
2023-04-18T02:51:08.847Z,101256.44
2023-04-18T02:52:10.662Z,101254.73
2023-04-18T02:53:12.480Z,101256.44
2023-04-18T02:54:14.555Z,101252.14
2023-04-18T02:55:16.580Z,101256.44
2023-04-18T02:56:18.410Z,101252.07
2023-04-18T02:57:20.201Z,101250.37
2023-04-18T02:58:21.994Z,101254.64
2023-04-18T02:59:23.805Z,101254.64
2023-04-18T03:00:25.625Z,101252.87
2023-04-18T03:01:27.508Z,101257.17
2023-04-18T03:02:29.452Z,101252.84
2023-04-18T03:03:31.382Z,101251.07
2023-04-18T03:04:33.183Z,101253.63
2023-04-18T03:05:34.930Z,101249.34
2023-04-18T03:06:36.756Z,101260.63
2023-04-18T03:07:38.561Z,101261.46
2023-04-18T03:08:40.348Z,101256.30
2023-04-18T03:09:42.160Z,101260.59
2023-04-18T03:10:43.936Z,101268.39
2023-04-18T03:11:45.778Z,101278.78
2023-04-18T03:12:47.556Z,101261.39
2023-04-18T03:13:49.375Z,101264.83
2023-04-18T03:14:51.221Z,101266.56
2023-04-18T03:15:53.100Z,101263.13
2023-04-18T03:16:55.703Z,101261.36
2023-04-18T03:17:57.583Z,101257.00
2023-04-18T03:18:59.429Z,101259.63
2023-04-18T03:20:01.218Z,101249.16
2023-04-18T03:21:03.013Z,101244.87
2023-04-18T03:22:04.949Z,101240.50
2023-04-18T03:23:06.746Z,101249.12
2023-04-18T03:24:09.688Z,101252.62
2023-04-18T03:25:12.151Z,101251.66
2023-04-18T03:26:13.994Z,101256.86
2023-04-18T03:27:17.588Z,101244.63
2023-04-18T03:28:19.376Z,101248.92
2023-04-18T03:29:21.180Z,101255.85
2023-04-18T03:30:22.982Z,101256.68
2023-04-18T03:31:24.802Z,101255.78
2023-04-18T03:32:26.729Z,101254.84
2023-04-18T03:33:28.496Z,101253.98
2023-04-18T03:34:30.317Z,101258.34
2023-04-18T03:35:32.114Z,101260.11
2023-04-18T03:36:33.902Z,101264.51
2023-04-18T03:37:35.742Z,101266.27
2023-04-18T03:38:37.528Z,101261.08
2023-04-18T03:39:39.326Z,101268.01
2023-04-18T03:40:41.120Z,101253.28
2023-04-18T03:41:42.976Z,101260.22
2023-04-18T03:42:44.800Z,101267.14
2023-04-18T03:43:46.585Z,101263.68
2023-04-18T03:44:48.383Z,101264.47
2023-04-18T03:45:50.244Z,101264.44
2023-04-18T03:46:52.040Z,101259.20
2023-04-18T03:47:53.877Z,101260.04
2023-04-18T03:48:55.656Z,101255.74
2023-04-18T03:49:57.439Z,101259.25
2023-04-18T03:50:59.246Z,101257.48
2023-04-18T03:52:01.029Z,101259.20
2023-04-18T03:53:02.854Z,101249.69
2023-04-18T03:54:04.651Z,101259.17
2023-04-18T03:55:06.453Z,101266.09
2023-04-18T03:56:08.557Z,101254.77
2023-04-18T03:57:10.350Z,101263.47
2023-04-18T03:58:12.197Z,101273.89
2023-04-18T03:59:16.662Z,101260.87
2023-04-18T04:00:18.501Z,101258.27
2023-04-18T04:01:20.910Z,101266.06
2023-04-18T04:02:22.800Z,101267.72
2023-04-18T04:03:24.884Z,101271.22
2023-04-18T04:04:26.865Z,101266.06
2023-04-18T04:05:28.754Z,101256.58
2023-04-18T04:06:30.558Z,101254.91
2023-04-18T04:07:32.332Z,101255.89
2023-04-18T04:08:34.123Z,101259.42
2023-04-18T04:09:36.059Z,101262.98
2023-04-18T04:10:37.859Z,101270.81
2023-04-18T04:11:39.662Z,101271.75
2023-04-18T04:12:41.461Z,101267.45
2023-04-18T04:13:43.292Z,101278.78
2023-04-18T04:14:45.195Z,101278.78
2023-04-18T04:15:46.998Z,101278.82
2023-04-18T04:16:48.897Z,101277.19
2023-04-18T04:17:50.724Z,101280.66
2023-04-18T04:18:52.607Z,101287.69
2023-04-18T04:19:54.400Z,101300.79
2023-04-18T04:20:56.189Z,101286.16
2023-04-18T04:21:57.987Z,101290.46
2023-04-18T04:22:59.794Z,101279.20
2023-04-18T04:24:01.561Z,101289.59
2023-04-18T04:25:03.396Z,101284.43
2023-04-18T04:26:05.305Z,101284.49
2023-04-18T04:27:07.105Z,101280.16
2023-04-18T04:28:08.896Z,101287.13
2023-04-18T04:29:10.631Z,101283.63
2023-04-18T04:30:13.478Z,101275.83
2023-04-18T04:31:15.451Z,101284.53
2023-04-18T04:32:17.257Z,101281.93
2023-04-18T04:33:19.058Z,101280.23
2023-04-18T04:34:20.874Z,101290.66
2023-04-18T04:35:22.715Z,101282.86
2023-04-18T04:36:24.561Z,101294.13
2023-04-18T04:37:26.362Z,101284.59
2023-04-18T04:38:28.165Z,101295.03
2023-04-18T04:39:29.994Z,101286.39
2023-04-18T04:40:31.815Z,101293.27
2023-04-18T04:41:33.603Z,101282.83
2023-04-18T04:42:35.397Z,101288.96
2023-04-18T04:43:37.198Z,101275.93
2023-04-18T04:44:39.049Z,101286.33
2023-04-18T04:45:40.874Z,101286.33
2023-04-18T04:46:42.654Z,101278.50
2023-04-18T04:47:44.476Z,101289.77
2023-04-18T04:48:46.253Z,101289.80
2023-04-18T04:49:48.087Z,101288.93
2023-04-18T04:50:49.905Z,101288.89
2023-04-18T04:51:51.698Z,101293.27
2023-04-18T04:52:53.494Z,101299.39
2023-04-18T04:53:55.392Z,101303.77
2023-04-18T04:54:57.233Z,101298.50
2023-04-18T04:55:59.049Z,101295.96
2023-04-18T04:57:00.847Z,101292.49
2023-04-18T04:58:02.654Z,101291.66
2023-04-18T04:59:04.445Z,101288.16
2023-04-18T05:00:06.567Z,101292.43
2023-04-18T05:01:08.396Z,101274.20
2023-04-18T05:02:10.340Z,101276.73
2023-04-18T05:03:12.269Z,101279.39
2023-04-18T05:04:14.538Z,101273.33
2023-04-18T05:05:16.723Z,101269.86
2023-04-18T05:06:18.494Z,101262.09
2023-04-18T05:07:20.285Z,101270.77
2023-04-18T05:08:22.087Z,101271.56
2023-04-18T05:09:23.893Z,101265.44
2023-04-18T05:10:26.027Z,101267.09
2023-04-18T05:11:27.916Z,101267.06
2023-04-18T05:12:29.730Z,101271.44
2023-04-18T05:13:31.513Z,101272.36
2023-04-18T05:14:33.308Z,101271.63
2023-04-18T05:15:35.148Z,101276.06
2023-04-18T05:16:36.976Z,101283.92
2023-04-18T05:17:38.943Z,101273.59
2023-04-18T05:18:40.761Z,101264.95
2023-04-18T05:19:42.545Z,101276.22
2023-04-18T05:20:44.410Z,101275.36
2023-04-18T05:21:46.209Z,101277.05
2023-04-18T05:22:48.022Z,101272.75
2023-04-18T05:23:49.807Z,101272.75
2023-04-18T05:24:51.622Z,101279.72
2023-04-18T05:25:53.457Z,101258.02
2023-04-18T05:26:55.337Z,101262.42
2023-04-18T05:27:57.125Z,101260.72
2023-04-18T05:28:58.919Z,101264.21
2023-04-18T05:30:00.724Z,101270.41
2023-04-18T05:31:02.719Z,101267.87
2023-04-18T05:32:04.578Z,101268.83
2023-04-18T05:33:06.432Z,101270.63
2023-04-18T05:34:08.183Z,101256.78
2023-04-18T05:35:09.994Z,101255.91
2023-04-18T05:36:12.113Z,101250.77
2023-04-18T05:37:13.944Z,101256.06
2023-04-18T05:38:15.731Z,101251.79
2023-04-18T05:39:17.536Z,101262.20
2023-04-18T05:40:19.355Z,101250.89
2023-04-18T05:41:21.172Z,101266.53
2023-04-18T05:42:22.978Z,101267.48
2023-04-18T05:43:24.797Z,101266.68
2023-04-18T05:44:26.596Z,101263.18
2023-04-18T05:45:28.407Z,101258.88
2023-04-18T05:46:30.290Z,101260.61
2023-04-18T05:47:32.208Z,101256.33
2023-04-18T05:48:33.965Z,101256.39
2023-04-18T05:49:35.769Z,101258.15
2023-04-18T05:50:37.565Z,101257.37
2023-04-18T05:51:39.425Z,101253.92
2023-04-18T05:52:41.255Z,101257.39
2023-04-18T05:53:43.056Z,101260.00
2023-04-18T05:54:44.856Z,101259.16
2023-04-18T05:55:46.673Z,101266.12
2023-04-18T05:56:48.560Z,101244.47
2023-04-18T05:57:50.368Z,101250.59
2023-04-18T05:58:52.160Z,101246.23
2023-04-18T05:59:53.975Z,101244.47
2023-04-18T06:00:55.774Z,101244.49
2023-04-18T06:01:57.686Z,101242.84
2023-04-18T06:02:59.731Z,101239.42
2023-04-18T06:04:01.914Z,101247.28
2023-04-18T06:05:03.973Z,101259.44
2023-04-18T06:06:05.938Z,101258.57
2023-04-18T06:07:07.777Z,101253.39
2023-04-18T06:08:09.548Z,101252.55
2023-04-18T06:09:11.374Z,101262.17
2023-04-18T06:10:13.268Z,101263.05
2023-04-18T06:11:15.103Z,101254.44
2023-04-18T06:12:16.915Z,101247.56
2023-04-18T06:13:18.922Z,101248.47
2023-04-18T06:14:20.729Z,101248.52
2023-04-18T06:15:22.540Z,101243.37
2023-04-18T06:16:24.434Z,101242.55
2023-04-18T06:17:26.284Z,101253.89
2023-04-18T06:18:28.148Z,101255.65
2023-04-18T06:19:29.952Z,101255.67
2023-04-18T06:20:31.773Z,101260.05
2023-04-18T06:21:33.566Z,101261.84
2023-04-18T06:22:35.427Z,101256.69
2023-04-18T06:23:37.232Z,101256.77
2023-04-18T06:24:39.019Z,101245.50
2023-04-18T06:25:40.823Z,101251.59
2023-04-18T06:26:42.631Z,101242.09
2023-04-18T06:27:44.466Z,101245.59
2023-04-18T06:28:46.288Z,101248.22
2023-04-18T06:29:48.077Z,101252.66
2023-04-18T06:30:49.878Z,101249.22
2023-04-18T06:31:51.747Z,101236.14
2023-04-18T06:32:53.706Z,101243.13
2023-04-18T06:33:55.558Z,101235.36
2023-04-18T06:34:57.349Z,101235.36
2023-04-18T06:36:00.294Z,101233.69
2023-04-18T06:37:02.088Z,101237.16
2023-04-18T06:38:03.922Z,101232.84
2023-04-18T06:39:05.759Z,101230.28
2023-04-18T06:40:07.948Z,101239.00
2023-04-18T06:41:09.759Z,101236.44
2023-04-18T06:42:11.550Z,101224.31
2023-04-18T06:43:13.406Z,101229.55
2023-04-18T06:44:15.308Z,101235.70
2023-04-18T06:45:17.308Z,101225.34
2023-04-18T06:46:19.097Z,101222.77
2023-04-18T06:47:22.692Z,101234.08
2023-04-18T06:48:24.536Z,101240.20
2023-04-18T06:49:26.715Z,101235.06
2023-04-18T06:50:28.646Z,101242.03
2023-04-18T06:51:30.438Z,101232.55
2023-04-18T06:52:32.242Z,101225.63
2023-04-18T06:53:34.086Z,101224.84
2023-04-18T06:54:35.777Z,101224.90
2023-04-18T06:55:37.569Z,101233.63
2023-04-18T06:56:39.353Z,101226.70
2023-04-18T06:57:41.162Z,101222.31
2023-04-18T06:58:43.090Z,101228.41
2023-04-18T06:59:44.925Z,101240.64
2023-04-18T07:00:46.778Z,101243.33
2023-04-18T07:01:48.609Z,101242.53
2023-04-18T07:02:50.511Z,101232.12
2023-04-18T07:03:52.461Z,101238.25
2023-04-18T07:04:54.285Z,101235.67
2023-04-18T07:05:56.113Z,101235.75
2023-04-18T07:06:57.906Z,101229.69
2023-04-18T07:07:59.681Z,101232.36
2023-04-18T07:09:01.552Z,101225.45
2023-04-18T07:10:03.332Z,101218.52
2023-04-18T07:11:05.140Z,101229.00
2023-04-18T07:12:06.929Z,101223.78
2023-04-18T07:13:08.748Z,101225.53
2023-04-18T07:14:10.620Z,101228.16
2023-04-18T07:15:12.424Z,101224.68
2023-04-18T07:16:14.247Z,101225.60
2023-04-18T07:17:16.009Z,101224.83
2023-04-18T07:18:30.248Z,101214.40
2023-04-18T07:19:21.387Z,101225.73
2023-04-18T07:20:23.190Z,101217.92
2023-04-18T07:21:24.975Z,101220.56
2023-04-18T07:22:26.889Z,101215.35
2023-04-18T07:23:28.692Z,101213.63
2023-04-18T07:24:30.529Z,101219.77
2023-04-18T07:25:32.334Z,101226.74
2023-04-18T07:26:34.125Z,101222.43
2023-04-18T07:27:35.916Z,101216.37
2023-04-18T07:28:37.721Z,101219.87
2023-04-18T07:29:39.594Z,101210.31
2023-04-18T07:30:41.512Z,101212.09
2023-04-18T07:31:43.431Z,101212.11
2023-04-18T07:32:45.258Z,101214.75
2023-04-18T07:33:47.055Z,101210.44
2023-04-18T07:34:48.947Z,101201.72
2023-04-18T07:35:50.744Z,101204.33
2023-04-18T07:36:52.541Z,101213.08
2023-04-18T07:37:54.347Z,101213.08
2023-04-18T07:38:56.144Z,101212.18
2023-04-18T07:39:57.968Z,101214.80
2023-04-18T07:40:59.785Z,101213.08
2023-04-18T07:42:01.564Z,101217.42
2023-04-18T07:43:03.362Z,101219.17
2023-04-18T07:44:05.169Z,101224.41
2023-04-18T07:45:06.888Z,101224.42
2023-04-18T07:46:09.078Z,101227.89
2023-04-18T07:47:10.932Z,101221.81
2023-04-18T07:48:12.782Z,101228.80
2023-04-18T07:49:14.771Z,101228.80
2023-04-18T07:50:16.769Z,101230.52
2023-04-18T07:51:18.560Z,101231.39
2023-04-18T07:52:20.357Z,101229.63
2023-04-18T07:53:22.166Z,101233.09
2023-04-18T07:54:23.961Z,101234.84
2023-04-18T07:55:25.785Z,101234.84
2023-04-18T07:56:27.615Z,101224.36
2023-04-18T07:57:29.412Z,101233.06
2023-04-18T07:58:31.221Z,101233.08
2023-04-18T07:59:33.042Z,101226.98
2023-04-18T08:00:34.849Z,101221.75
2023-04-18T08:01:36.687Z,101225.23
2023-04-18T08:02:38.599Z,101221.77
2023-04-18T08:03:40.628Z,101225.25
2023-04-18T08:04:42.693Z,101227.02
2023-04-18T08:05:44.639Z,101220.95
2023-04-18T08:06:46.420Z,101220.95
2023-04-18T08:07:48.232Z,101217.45
2023-04-18T08:08:50.048Z,101216.63
2023-04-18T08:09:51.863Z,101226.23
2023-04-18T08:10:53.706Z,101216.64
2023-04-18T08:11:55.493Z,101209.70
2023-04-18T08:12:57.285Z,101211.44
2023-04-18T08:13:59.079Z,101208.84
2023-04-18T08:15:00.889Z,101217.59
2023-04-18T08:16:02.755Z,101198.39
2023-04-18T08:17:04.545Z,101190.55
2023-04-18T08:18:06.373Z,101199.30
2023-04-18T08:19:08.545Z,101188.84
2023-04-18T08:20:11.179Z,101194.08
2023-04-18T08:21:13.000Z,101196.72
2023-04-18T08:22:14.799Z,101192.36
2023-04-18T08:23:16.625Z,101195.84
2023-04-18T08:24:18.440Z,101199.35
2023-04-18T08:25:20.233Z,101201.08
2023-04-18T08:26:24.336Z,101193.24
2023-04-18T08:27:26.180Z,101195.00
2023-04-18T08:28:27.879Z,101195.02
2023-04-18T08:29:29.678Z,101196.77
2023-04-18T08:30:32.478Z,101193.31
2023-04-18T08:31:34.644Z,101203.78
2023-04-18T08:32:36.480Z,101204.64
2023-04-18T08:33:38.317Z,101193.31
2023-04-18T08:34:40.111Z,101196.78
2023-04-18T08:35:41.934Z,101198.54
2023-04-18T08:36:43.778Z,101195.94
2023-04-18T08:37:45.578Z,101198.56
2023-04-18T08:38:47.363Z,101193.33
2023-04-18T08:39:49.069Z,101193.34
2023-04-18T08:40:50.857Z,101189.83
2023-04-18T08:41:52.703Z,101198.61
2023-04-18T08:42:54.512Z,101202.95
2023-04-18T08:43:57.222Z,101207.33
2023-04-18T08:44:59.016Z,101207.33
2023-04-18T08:46:00.913Z,101197.73
2023-04-18T08:47:02.764Z,101202.09
2023-04-18T08:48:04.678Z,101204.72
2023-04-18T08:49:06.594Z,101200.34
2023-04-18T08:50:08.397Z,101204.73
2023-04-18T08:51:10.246Z,101203.88
2023-04-18T08:52:12.081Z,101204.73
2023-04-18T08:53:13.874Z,101203.02
2023-04-18T08:54:15.664Z,101196.89
2023-04-18T08:55:17.359Z,101208.26
2023-04-18T08:56:19.175Z,101203.88
2023-04-18T08:57:21.017Z,101196.89
2023-04-18T08:58:22.818Z,101210.87
2023-04-18T08:59:24.619Z,101198.65
2023-04-18T09:00:26.421Z,101200.40
2023-04-18T09:01:28.379Z,101209.11
2023-04-18T09:02:30.341Z,101197.78
2023-04-18T09:03:32.371Z,101195.17
2023-04-18T09:04:34.273Z,101203.89
2023-04-18T09:05:36.074Z,101199.52
2023-04-18T09:06:37.875Z,101196.05
2023-04-18T09:07:39.707Z,101197.81
2023-04-18T09:08:41.514Z,101194.31
2023-04-18T09:09:43.323Z,101199.55
2023-04-18T09:10:46.744Z,101200.45
2023-04-18T09:11:48.625Z,101203.95
2023-04-18T09:12:50.748Z,101196.97
2023-04-18T09:13:52.547Z,101203.95
2023-04-18T09:14:54.358Z,101191.73
2023-04-18T09:15:56.174Z,101210.95
2023-04-18T09:16:58.032Z,101201.34
2023-04-18T09:18:00.055Z,101195.23
2023-04-18T09:19:02.043Z,101202.20
2023-04-18T09:20:03.890Z,101203.96
2023-04-18T09:21:05.687Z,101200.49
2023-04-18T09:22:07.496Z,101201.36
2023-04-18T09:23:09.320Z,101211.83
2023-04-18T09:24:11.296Z,101203.98
2023-04-18T09:25:13.236Z,101218.83
2023-04-18T09:26:15.642Z,101215.34
2023-04-18T09:27:17.457Z,101214.45
2023-04-18T09:28:19.298Z,101221.45
2023-04-18T09:29:21.099Z,101224.06
2023-04-18T09:30:23.021Z,101215.34
2023-04-18T09:31:24.877Z,101213.59
2023-04-18T09:32:26.757Z,101211.84
2023-04-18T09:33:28.680Z,101205.75
2023-04-18T09:34:30.432Z,101210.98
2023-04-18T09:35:32.331Z,101209.23
2023-04-18T09:36:34.165Z,101210.13
2023-04-18T09:37:35.926Z,101207.52
2023-04-18T09:38:37.749Z,101204.91
2023-04-18T09:39:39.532Z,101213.63
2023-04-18T09:40:41.339Z,101204.06
2023-04-18T09:41:43.178Z,101197.92
2023-04-18T09:42:44.930Z,101196.20
2023-04-18T09:43:46.754Z,101185.73
2023-04-18T09:44:48.541Z,101191.83
2023-04-18T09:45:50.379Z,101184.84
2023-04-18T09:46:52.165Z,101181.36
2023-04-18T09:47:54.052Z,101174.36
2023-04-18T09:48:55.894Z,101171.75
2023-04-18T09:49:57.699Z,101175.27
2023-04-18T09:50:59.527Z,101170.03
2023-04-18T09:52:01.298Z,101174.36
2023-04-18T09:53:03.121Z,101169.13
2023-04-18T09:54:04.929Z,101172.64
2023-04-18T09:55:06.755Z,101176.98
2023-04-18T09:56:09.874Z,101176.13
2023-04-18T09:57:11.689Z,101174.37
2023-04-18T09:58:13.486Z,101165.66
2023-04-18T09:59:15.508Z,101169.14
2023-04-18T10:00:17.568Z,101177.89
2023-04-18T10:01:21.123Z,101177.89
2023-04-18T10:02:23.060Z,101182.27
2023-04-18T10:03:25.100Z,101177.90
2023-04-18T10:04:27.038Z,101162.19
2023-04-18T10:05:28.928Z,101171.80
2023-04-18T10:06:30.691Z,101167.42
2023-04-18T10:07:32.373Z,101165.66
2023-04-18T10:08:34.170Z,101170.91
2023-04-18T10:09:35.995Z,101171.80
2023-04-18T10:10:39.078Z,101177.03
2023-04-18T10:11:41.133Z,101177.04
2023-04-18T10:12:42.929Z,101172.66
2023-04-18T10:13:44.746Z,101177.00
2023-04-18T10:14:46.596Z,101180.52
2023-04-18T10:15:50.418Z,101172.66
2023-04-18T10:16:52.112Z,101170.04
2023-04-18T10:18:03.530Z,101167.42
2023-04-18T10:18:57.744Z,101167.42
2023-04-18T10:19:59.566Z,101171.80
2023-04-18T10:21:01.376Z,101162.19
2023-04-18T10:22:03.169Z,101170.05
2023-04-18T10:23:04.969Z,101178.77
2023-04-18T10:24:06.771Z,101168.28
2023-04-18T10:25:08.616Z,101167.42
2023-04-18T10:26:10.450Z,101165.67
2023-04-18T10:27:12.221Z,101168.28
2023-04-18T10:28:14.023Z,101174.42
2023-04-18T10:29:15.882Z,101170.05
2023-04-18T10:30:17.707Z,101179.66
2023-04-18T10:31:19.511Z,101180.52
2023-04-18T10:32:21.363Z,101186.63
2023-04-18T10:33:30.517Z,101173.53
2023-04-18T10:34:26.778Z,101163.95
2023-04-18T10:35:28.623Z,101177.05
2023-04-18T10:36:30.518Z,101172.66
2023-04-18T10:37:32.295Z,101169.18
2023-04-18T10:38:34.093Z,101166.56
2023-04-18T10:39:35.896Z,101176.15
2023-04-18T10:40:37.740Z,101158.70
2023-04-18T10:41:39.542Z,101160.43
2023-04-18T10:42:41.386Z,101163.95
2023-04-18T10:43:43.584Z,101174.42
2023-04-18T10:44:45.429Z,101167.42
2023-04-18T10:45:47.262Z,101181.45
2023-04-18T10:46:49.083Z,101174.45
2023-04-18T10:47:50.980Z,101189.31
2023-04-18T10:48:52.798Z,101173.59
2023-04-18T10:49:54.616Z,101165.73
2023-04-18T10:50:56.436Z,101179.69
2023-04-18T10:51:58.240Z,101168.34
2023-04-18T10:53:00.066Z,101172.69
2023-04-18T10:54:01.857Z,101174.45
2023-04-18T10:55:03.697Z,101166.59
2023-04-18T10:56:05.611Z,101160.48
2023-04-18T10:57:07.419Z,101156.11
2023-04-18T10:58:09.216Z,101156.97
2023-04-18T10:59:11.005Z,101178.83
2023-04-18T11:00:13.039Z,101160.48
2023-04-18T11:01:14.899Z,101165.72
2023-04-18T11:02:16.781Z,101166.58
2023-04-18T11:03:18.626Z,101169.20
2023-04-18T11:04:20.776Z,101159.58
2023-04-18T11:05:22.684Z,101178.82
2023-04-18T11:06:24.515Z,101176.20
2023-04-18T11:07:28.408Z,101154.34
2023-04-18T11:08:30.697Z,101146.48
2023-04-18T11:09:32.550Z,101169.20
2023-04-18T11:10:34.359Z,101164.82
2023-04-18T11:11:36.202Z,101170.06
2023-04-18T11:12:37.997Z,101163.96
2023-04-18T11:13:39.797Z,101159.58
2023-04-18T11:14:41.597Z,101157.86
2023-04-18T11:15:43.412Z,101160.48
2023-04-18T11:16:45.262Z,101165.72
2023-04-18T11:17:47.159Z,101155.23
2023-04-18T11:18:49.071Z,101162.22
2023-04-18T11:19:50.884Z,101157.84
2023-04-18T11:20:52.672Z,101144.74
2023-04-18T11:21:54.515Z,101149.98
2023-04-18T11:22:56.321Z,101149.12
2023-04-18T11:23:58.117Z,101156.08
2023-04-18T11:24:59.918Z,101147.35
2023-04-18T11:26:01.708Z,101153.45
2023-04-18T11:27:03.549Z,101143.86
2023-04-18T11:28:05.433Z,101141.24
2023-04-18T11:29:07.261Z,101142.97
2023-04-18T11:30:09.513Z,101136.85
2023-04-18T11:31:11.298Z,101142.95
2023-04-18T11:32:13.204Z,101134.22
2023-04-18T11:33:15.032Z,101134.21
2023-04-18T11:34:16.804Z,101135.97
2023-04-18T11:35:18.589Z,101130.72
2023-04-18T11:36:20.497Z,101125.48
2023-04-18T11:37:22.359Z,101135.10
2023-04-18T11:38:24.351Z,101126.34
2023-04-18T11:39:26.282Z,101128.09
2023-04-18T11:40:28.059Z,101132.48
2023-04-18T11:41:29.876Z,101132.47
2023-04-18T11:42:31.702Z,101124.61
2023-04-18T11:43:33.511Z,101119.36
2023-04-18T11:44:36.216Z,101121.98
2023-04-18T11:45:38.287Z,101129.84
2023-04-18T11:46:40.144Z,101119.36